sensor_id;sensor_type;location;lat;lon;timestamp;pressure;altitude;pressure_sealevel;temperature;humidity
51123;BME280;37162;41.724;13.346;2023-03-03T00:01:26;96418.09;;;16.15;61.88
51123;BME280;37162;41.724;13.346;2023-03-03T00:03:52;96424.50;;;16.14;61.79
51123;BME280;37162;41.724;13.346;2023-03-03T00:06:19;96425.31;;;16.15;61.72
51123;BME280;37162;41.724;13.346;2023-03-03T00:08:44;96424.50;;;16.14;62.03
51123;BME280;37162;41.724;13.346;2023-03-03T00:11:10;96412.28;;;16.06;61.81
51123;BME280;37162;41.724;13.346;2023-03-03T00:13:49;96421.00;;;16.14;61.90
51123;BME280;37162;41.724;13.346;2023-03-03T00:16:24;96413.78;;;16.14;62.10
51123;BME280;37162;41.724;13.346;2023-03-03T00:18:50;96425.53;;;16.13;62.05
51123;BME280;37162;41.724;13.346;2023-03-03T00:21:29;96413.78;;;16.14;62.55
51123;BME280;37162;41.724;13.346;2023-03-03T00:26:44;96411.13;;;16.14;62.38
51123;BME280;37162;41.724;13.346;2023-03-03T00:29:23;96405.75;;;16.14;62.26
51123;BME280;37162;41.724;13.346;2023-03-03T00:31:50;96390.13;;;16.11;62.37
51123;BME280;37162;41.724;13.346;2023-03-03T00:36:41;96400.38;;;16.14;62.21
51123;BME280;37162;41.724;13.346;2023-03-03T00:41:43;96395.03;;;16.14;61.79
51123;BME280;37162;41.724;13.346;2023-03-03T00:46:55;96397.72;;;16.14;61.80
51123;BME280;37162;41.724;13.346;2023-03-03T00:49:25;96396.06;;;16.13;61.74
51123;BME280;37162;41.724;13.346;2023-03-03T00:51:52;96392.56;;;16.13;61.71
51123;BME280;37162;41.724;13.346;2023-03-03T00:54:18;96389.06;;;16.12;61.57
51123;BME280;37162;41.724;13.346;2023-03-03T00:56:43;96392.81;;;16.11;61.71
51123;BME280;37162;41.724;13.346;2023-03-03T00:59:09;96391.19;;;16.10;61.61
51123;BME280;37162;41.724;13.346;2023-03-03T01:01:34;96384.19;;;16.09;61.63
51123;BME280;37162;41.724;13.346;2023-03-03T01:03:59;96376.97;;;16.09;61.74
51123;BME280;37162;41.724;13.346;2023-03-03T01:06:25;96378.81;;;16.09;61.64
51123;BME280;37162;41.724;13.346;2023-03-03T01:08:50;96369.16;;;16.08;61.58
51123;BME280;37162;41.724;13.346;2023-03-03T01:11:22;96364.84;;;16.07;61.62
51123;BME280;37162;41.724;13.346;2023-03-03T01:13:48;96366.16;;;16.04;61.58
51123;BME280;37162;41.724;13.346;2023-03-03T01:16:14;96358.34;;;16.03;61.63
51123;BME280;37162;41.724;13.346;2023-03-03T01:18:40;96352.41;;;16.01;61.81
51123;BME280;37162;41.724;13.346;2023-03-03T01:21:07;96338.91;;;15.96;61.70
51123;BME280;37162;41.724;13.346;2023-03-03T01:23:33;96350.91;;;16.05;61.67
51123;BME280;37162;41.724;13.346;2023-03-03T01:25:59;96342.16;;;15.98;61.97
51123;BME280;37162;41.724;13.346;2023-03-03T01:28:24;96348.22;;;16.05;62.15
51123;BME280;37162;41.724;13.346;2023-03-03T01:30:49;96345.28;;;16.06;62.09
51123;BME280;37162;41.724;13.346;2023-03-03T01:33:15;96336.44;;;16.06;62.04
51123;BME280;37162;41.724;13.346;2023-03-03T01:35:45;96329.34;;;16.00;61.98
51123;BME280;37162;41.724;13.346;2023-03-03T01:38:11;96338.06;;;16.07;61.93
51123;BME280;37162;41.724;13.346;2023-03-03T01:40:37;96338.88;;;16.07;61.66
51123;BME280;37162;41.724;13.346;2023-03-03T01:43:02;96336.44;;;16.06;61.82
51123;BME280;37162;41.724;13.346;2023-03-03T01:48:24;96328.16;;;16.07;61.62
51123;BME280;37162;41.724;13.346;2023-03-03T01:51:08;96317.44;;;16.07;61.78
51123;BME280;37162;41.724;13.346;2023-03-03T01:53:44;96330.03;;;16.07;61.82
51123;BME280;37162;41.724;13.346;2023-03-03T01:56:10;96330.03;;;16.07;61.63
51123;BME280;37162;41.724;13.346;2023-03-03T01:58:39;96326.53;;;16.06;61.84
51123;BME280;37162;41.724;13.346;2023-03-03T02:01:08;96327.34;;;16.07;61.90
51123;BME280;37162;41.724;13.346;2023-03-03T02:03:36;96324.66;;;16.07;61.69
51123;BME280;37162;41.724;13.346;2023-03-03T02:06:07;96322.78;;;16.07;61.85
51123;BME280;37162;41.724;13.346;2023-03-03T02:08:59;96314.41;;;16.04;61.81
51123;BME280;37162;41.724;13.346;2023-03-03T02:11:29;96310.44;;;16.06;61.77
51123;BME280;37162;41.724;13.346;2023-03-03T02:13:56;96308.59;;;16.07;61.97
51123;BME280;37162;41.724;13.346;2023-03-03T02:16:21;96310.44;;;16.06;62.03
51123;BME280;37162;41.724;13.346;2023-03-03T02:18:47;96311.25;;;16.07;61.94
51123;BME280;37162;41.724;13.346;2023-03-03T02:21:21;96313.94;;;16.07;61.96
51123;BME280;37162;41.724;13.346;2023-03-03T02:23:52;96314.75;;;16.07;61.83
51123;BME280;37162;41.724;13.346;2023-03-03T02:26:24;96312.88;;;16.08;62.41
51123;BME280;37162;41.724;13.346;2023-03-03T02:28:51;96312.78;;;16.03;62.47
51123;BME280;37162;41.724;13.346;2023-03-03T02:31:22;96310.09;;;16.03;62.31
51123;BME280;37162;41.724;13.346;2023-03-03T02:33:50;96317.19;;;16.09;62.62
51123;BME280;37162;41.724;13.346;2023-03-03T02:36:37;96317.19;;;16.09;62.39
51123;BME280;37162;41.724;13.346;2023-03-03T02:44:11;96319.88;;;16.09;62.00
51123;BME280;37162;41.724;13.346;2023-03-03T02:46:40;96318.03;;;16.09;61.74
51123;BME280;37162;41.724;13.346;2023-03-03T02:49:07;96311.03;;;16.08;61.66
51123;BME280;37162;41.724;13.346;2023-03-03T02:51:33;96319.88;;;16.09;61.68
51123;BME280;37162;41.724;13.346;2023-03-03T02:54:00;96318.25;;;16.08;61.74
51123;BME280;37162;41.724;13.346;2023-03-03T02:56:26;96317.44;;;16.07;61.76
51123;BME280;37162;41.724;13.346;2023-03-03T02:58:51;96310.22;;;16.08;61.72
51123;BME280;37162;41.724;13.346;2023-03-03T03:01:17;96311.25;;;16.07;61.60
51123;BME280;37162;41.724;13.346;2023-03-03T03:03:43;96293.69;;;15.99;61.63
51123;BME280;37162;41.724;13.346;2023-03-03T03:06:08;96304.28;;;16.06;61.67
51123;BME280;37162;41.724;13.346;2023-03-03T03:08:34;96304.28;;;16.06;61.50
51123;BME280;37162;41.724;13.346;2023-03-03T03:11:00;96310.69;;;16.05;61.69
51123;BME280;37162;41.724;13.346;2023-03-03T03:13:25;96314.41;;;16.04;61.65
51123;BME280;37162;41.724;13.346;2023-03-03T03:15:51;96297.66;;;15.97;61.53
51123;BME280;37162;41.724;13.346;2023-03-03T03:18:16;96311.72;;;16.04;61.75
51123;BME280;37162;41.724;13.346;2023-03-03T03:20:42;96311.97;;;16.02;61.78
51123;BME280;37162;41.724;13.346;2023-03-03T03:23:09;96303.13;;;16.02;61.59
51123;BME280;37162;41.724;13.346;2023-03-03T03:25:34;96301.16;;;15.97;61.55
51123;BME280;37162;41.724;13.346;2023-03-03T03:28:02;96303.13;;;16.02;61.77
51123;BME280;37162;41.724;13.346;2023-03-03T03:30:27;96302.31;;;16.01;61.80
51123;BME280;37162;41.724;13.346;2023-03-03T03:32:53;96298.84;;;16.01;61.74
51123;BME280;37162;41.724;13.346;2023-03-03T03:35:18;96291.72;;;15.95;61.91
51123;BME280;37162;41.724;13.346;2023-03-03T03:37:44;96303.13;;;16.02;62.01
51123;BME280;37162;41.724;13.346;2023-03-03T03:40:10;96311.16;;;16.02;62.05
51123;BME280;37162;41.724;13.346;2023-03-03T03:42:36;96320.00;;;16.02;61.80
51123;BME280;37162;41.724;13.346;2023-03-03T03:45:03;96318.97;;;16.03;61.65
51123;BME280;37162;41.724;13.346;2023-03-03T03:47:29;96318.16;;;16.03;61.61
51123;BME280;37162;41.724;13.346;2023-03-03T03:49:55;96315.47;;;16.03;61.37
51123;BME280;37162;41.724;13.346;2023-03-03T03:52:20;96306.88;;;16.01;61.47
51123;BME280;37162;41.724;13.346;2023-03-03T03:54:45;96310.09;;;16.03;61.44
51123;BME280;37162;41.724;13.346;2023-03-03T03:57:11;96311.41;;;16.00;61.27
51123;BME280;37162;41.724;13.346;2023-03-03T03:59:36;96317.34;;;16.02;61.76
51123;BME280;37162;41.724;13.346;2023-03-03T04:02:03;96323.50;;;16.03;61.52
51123;BME280;37162;41.724;13.346;2023-03-03T04:04:28;96328.88;;;16.03;61.43
51123;BME280;37162;41.724;13.346;2023-03-03T04:06:53;96326.19;;;16.03;61.41
51123;BME280;37162;41.724;13.346;2023-03-03T04:09:19;96326.19;;;16.03;61.62
51123;BME280;37162;41.724;13.346;2023-03-03T04:11:44;96336.91;;;16.03;61.45
51123;BME280;37162;41.724;13.346;2023-03-03T04:14:10;96325.38;;;16.02;61.58
51123;BME280;37162;41.724;13.346;2023-03-03T04:16:35;96332.59;;;16.02;61.43
51123;BME280;37162;41.724;13.346;2023-03-03T04:19:00;96328.06;;;16.02;61.44
51123;BME280;37162;41.724;13.346;2023-03-03T04:21:26;96330.72;;;16.02;61.39
51123;BME280;37162;41.724;13.346;2023-03-03T04:23:52;96331.78;;;16.01;61.50
51123;BME280;37162;41.724;13.346;2023-03-03T04:26:17;96317.59;;;16.01;61.59
51123;BME280;37162;41.724;13.346;2023-03-03T04:28:43;96319.22;;;16.02;61.52
51123;BME280;37162;41.724;13.346;2023-03-03T04:31:08;96323.75;;;16.01;61.72
51123;BME280;37162;41.724;13.346;2023-03-03T04:33:34;96319.22;;;16.02;61.85
51123;BME280;37162;41.724;13.346;2023-03-03T04:36:00;96315.97;;;16.00;62.09
51123;BME280;37162;41.724;13.346;2023-03-03T04:38:25;96327.00;;;16.03;62.05
51123;BME280;37162;41.724;13.346;2023-03-03T04:40:51;96316.28;;;16.03;62.15
51123;BME280;37162;41.724;13.346;2023-03-03T04:43:16;96324.31;;;16.03;62.24
51123;BME280;37162;41.724;13.346;2023-03-03T04:45:42;96321.63;;;16.03;62.04
51123;BME280;37162;41.724;13.346;2023-03-03T04:48:08;96321.06;;;16.01;62.05
51123;BME280;37162;41.724;13.346;2023-03-03T04:50:33;96324.31;;;16.03;61.76
51123;BME280;37162;41.724;13.346;2023-03-03T04:52:59;96328.06;;;16.02;61.65
51123;BME280;37162;41.724;13.346;2023-03-03T04:55:24;96327.00;;;16.03;61.51
51123;BME280;37162;41.724;13.346;2023-03-03T04:57:50;96329.69;;;16.03;61.43
51123;BME280;37162;41.724;13.346;2023-03-03T05:00:16;96326.19;;;16.03;61.64
51123;BME280;37162;41.724;13.346;2023-03-03T05:02:42;96319.22;;;16.02;61.38
51123;BME280;37162;41.724;13.346;2023-03-03T05:05:08;96325.38;;;16.02;61.43
51123;BME280;37162;41.724;13.346;2023-03-03T05:07:38;96322.13;;;16.00;61.44
51123;BME280;37162;41.724;13.346;2023-03-03T05:10:04;96321.44;;;15.93;61.39
51123;BME280;37162;41.724;13.346;2023-03-03T05:12:30;96320.38;;;15.94;61.38
51123;BME280;37162;41.724;13.346;2023-03-03T05:14:55;96335.53;;;16.00;61.17
51123;BME280;37162;41.724;13.346;2023-03-03T05:17:20;96326.69;;;16.00;61.35
51123;BME280;37162;41.724;13.346;2023-03-03T05:19:46;96331.19;;;15.99;61.43
51123;BME280;37162;41.724;13.346;2023-03-03T05:22:11;96321.53;;;15.98;61.34
51123;BME280;37162;41.724;13.346;2023-03-03T05:24:37;96326.09;;;15.98;61.46
51123;BME280;37162;41.724;13.346;2023-03-03T05:27:02;96321.78;;;15.97;61.40
51123;BME280;37162;41.724;13.346;2023-03-03T05:29:28;96322.59;;;15.97;61.32
51123;BME280;37162;41.724;13.346;2023-03-03T05:31:58;96317.47;;;15.96;61.31
51123;BME280;37162;41.724;13.346;2023-03-03T05:34:24;96320.38;;;15.94;61.35
51123;BME280;37162;41.724;13.346;2023-03-03T05:36:49;96313.16;;;15.95;61.45
51123;BME280;37162;41.724;13.346;2023-03-03T05:39:15;96311.31;;;15.95;61.49
51123;BME280;37162;41.724;13.346;2023-03-03T05:41:40;96296.97;;;15.90;61.59
51123;BME280;37162;41.724;13.346;2023-03-03T05:44:06;96297.78;;;15.90;61.83
51123;BME280;37162;41.724;13.346;2023-03-03T05:46:32;96306.97;;;15.94;61.49
51123;BME280;37162;41.724;13.346;2023-03-03T05:48:57;96300.59;;;15.95;61.59
51123;BME280;37162;41.724;13.346;2023-03-03T05:51:23;96310.47;;;15.95;61.59
51123;BME280;37162;41.724;13.346;2023-03-03T05:53:48;96315.84;;;15.95;61.44
51123;BME280;37162;41.724;13.346;2023-03-03T05:56:14;96309.00;;;15.87;61.16
51123;BME280;37162;41.724;13.346;2023-03-03T05:58:39;96315.03;;;15.94;61.24
51123;BME280;37162;41.724;13.346;2023-03-03T06:01:05;96315.84;;;15.95;61.18
51123;BME280;37162;41.724;13.346;2023-03-03T06:03:30;96316.88;;;15.94;61.31
51123;BME280;37162;41.724;13.346;2023-03-03T06:05:56;96315.84;;;15.95;61.22
51123;BME280;37162;41.724;13.346;2023-03-03T06:08:21;96311.53;;;15.94;61.15
51123;BME280;37162;41.724;13.346;2023-03-03T06:10:47;96309.34;;;15.91;61.27
51123;BME280;37162;41.724;13.346;2023-03-03T06:13:12;96318.50;;;15.95;61.31
51123;BME280;37162;41.724;13.346;2023-03-03T06:15:38;96324.38;;;15.92;61.28
51123;BME280;37162;41.724;13.346;2023-03-03T06:18:03;96325.75;;;15.94;61.37
51123;BME280;37162;41.724;13.346;2023-03-03T06:20:29;96331.09;;;15.94;61.17
51123;BME280;37162;41.724;13.346;2023-03-03T06:22:55;96334.59;;;15.95;61.30
51123;BME280;37162;41.724;13.346;2023-03-03T06:25:20;96342.88;;;15.93;61.38
51123;BME280;37162;41.724;13.346;2023-03-03T06:27:46;96352.53;;;15.94;61.35
51123;BME280;37162;41.724;13.346;2023-03-03T06:30:12;96358.94;;;15.93;61.32
51123;BME280;37162;41.724;13.346;2023-03-03T06:32:38;96347.16;;;15.94;61.51
51123;BME280;37162;41.724;13.346;2023-03-03T06:35:04;96354.41;;;15.94;61.49
51123;BME280;37162;41.724;13.346;2023-03-03T06:37:30;96354.41;;;15.94;61.35
51123;BME280;37162;41.724;13.346;2023-03-03T06:39:55;96361.63;;;15.93;61.47
51123;BME280;37162;41.724;13.346;2023-03-03T06:42:20;96365.13;;;15.94;61.40
51123;BME280;37162;41.724;13.346;2023-03-03T06:44:49;96365.25;;;15.87;61.46
51123;BME280;37162;41.724;13.346;2023-03-03T06:47:14;96377.44;;;15.95;61.58
51123;BME280;37162;41.724;13.346;2023-03-03T06:49:40;96372.94;;;15.95;61.51
51123;BME280;37162;41.724;13.346;2023-03-03T06:52:19;96378.03;;;15.97;61.53
51123;BME280;37162;41.724;13.346;2023-03-03T06:54:47;96373.41;;;15.92;61.27
51123;BME280;37162;41.724;13.346;2023-03-03T06:59:44;96383.16;;;15.98;61.26
51123;BME280;37162;41.724;13.346;2023-03-03T07:02:16;96384.56;;;16.01;61.01
51123;BME280;37162;41.724;13.346;2023-03-03T07:04:41;96381.88;;;16.01;60.96
51123;BME280;37162;41.724;13.346;2023-03-03T07:07:18;96367.56;;;15.95;60.83
51123;BME280;37162;41.724;13.346;2023-03-03T07:09:46;96380.38;;;16.05;60.76
51123;BME280;37162;41.724;13.346;2023-03-03T07:12:21;96379.31;;;16.06;60.85
51123;BME280;37162;41.724;13.346;2023-03-03T07:14:50;96378.00;;;16.08;60.70
51123;BME280;37162;41.724;13.346;2023-03-03T07:17:21;96375.31;;;16.08;60.72
51123;BME280;37162;41.724;13.346;2023-03-03T07:19:47;96370.13;;;16.02;60.80
51123;BME280;37162;41.724;13.346;2023-03-03T07:22:19;96378.81;;;16.09;60.44
51123;BME280;37162;41.724;13.346;2023-03-03T07:24:48;96386.66;;;16.10;60.69
51123;BME280;37162;41.724;13.346;2023-03-03T07:27:25;96380.47;;;16.10;60.42
51123;BME280;37162;41.724;13.346;2023-03-03T07:29:54;96383.38;;;16.08;60.53
51123;BME280;37162;41.724;13.346;2023-03-03T07:32:42;96383.38;;;16.08;60.59
51123;BME280;37162;41.724;13.346;2023-03-03T07:41:17;96386.28;;;16.07;60.86
51123;BME280;37162;41.724;13.346;2023-03-03T07:44:04;96390.03;;;16.06;60.76
51123;BME280;37162;41.724;13.346;2023-03-03T07:46:36;96384.56;;;16.01;60.81
51123;BME280;37162;41.724;13.346;2023-03-03T07:51:53;96392.47;;;16.07;60.68
51123;BME280;37162;41.724;13.346;2023-03-03T07:54:38;96393.53;;;16.06;60.67
51123;BME280;37162;41.724;13.346;2023-03-03T07:59:53;96388.16;;;16.06;60.66
51123;BME280;37162;41.724;13.346;2023-03-03T08:04:47;96389.22;;;16.05;60.54
51123;BME280;37162;41.724;13.346;2023-03-03T08:07:18;96386.28;;;16.07;61.25
51123;BME280;37162;41.724;13.346;2023-03-03T08:09:53;96390.84;;;16.06;61.10
51123;BME280;37162;41.724;13.346;2023-03-03T08:14:53;96378.41;;;16.00;61.65
51123;BME280;37162;41.724;13.346;2023-03-03T08:17:24;96380.38;;;16.05;62.04
51123;BME280;37162;41.724;13.346;2023-03-03T08:19:55;96390.94;;;16.12;61.90
51123;BME280;37162;41.724;13.346;2023-03-03T08:22:27;96384.78;;;16.11;61.41
51123;BME280;37162;41.724;13.346;2023-03-03T08:24:54;96382.91;;;16.12;61.78
51123;BME280;37162;41.724;13.346;2023-03-03T08:27:19;96389.88;;;16.13;61.93
51123;BME280;37162;41.724;13.346;2023-03-03T08:29:45;96385.34;;;16.13;61.69
51123;BME280;37162;41.724;13.346;2023-03-03T08:32:10;96383.72;;;16.12;61.34
51123;BME280;37162;41.724;13.346;2023-03-03T08:34:36;96387.81;;;16.15;61.45
51123;BME280;37162;41.724;13.346;2023-03-03T08:37:01;96381.63;;;16.14;61.21
51123;BME280;37162;41.724;13.346;2023-03-03T08:39:27;96389.66;;;16.14;61.22
51123;BME280;37162;41.724;13.346;2023-03-03T08:41:52;96381.50;;;16.09;61.12
51123;BME280;37162;41.724;13.346;2023-03-03T08:44:18;96398.28;;;16.16;61.18
51123;BME280;37162;41.724;13.346;2023-03-03T08:46:44;96396.41;;;16.17;60.88
51123;BME280;37162;41.724;13.346;2023-03-03T08:49:10;96398.63;;;16.20;60.72
51123;BME280;37162;41.724;13.346;2023-03-03T08:51:35;96394.66;;;16.22;60.36
51123;BME280;37162;41.724;13.346;2023-03-03T08:54:01;96394.19;;;16.25;60.08
51123;BME280;37162;41.724;13.346;2023-03-03T08:56:26;96403.63;;;16.28;60.65
51123;BME280;37162;41.724;13.346;2023-03-03T08:58:52;96404.66;;;16.27;60.44
51123;BME280;37162;41.724;13.346;2023-03-03T09:01:17;96391.66;;;16.19;60.19
51123;BME280;37162;41.724;13.346;2023-03-03T09:03:43;96405.72;;;16.26;60.17
51123;BME280;37162;41.724;13.346;2023-03-03T09:06:10;96408.38;;;16.26;59.92
51123;BME280;37162;41.724;13.346;2023-03-03T09:08:37;96413.75;;;16.26;59.99
51123;BME280;37162;41.724;13.346;2023-03-03T09:11:09;96406.53;;;16.26;60.23
51123;BME280;37162;41.724;13.346;2023-03-03T09:13:36;96411.88;;;16.26;60.13
51123;BME280;37162;41.724;13.346;2023-03-03T09:16:10;96410.81;;;16.27;59.93
51123;BME280;37162;41.724;13.346;2023-03-03T09:18:38;96407.59;;;16.25;60.00
51123;BME280;37162;41.724;13.346;2023-03-03T09:21:21;96403.94;;;16.31;59.88
51123;BME280;37162;41.724;13.346;2023-03-03T09:23:52;96399.63;;;16.30;59.62
51123;BME280;37162;41.724;13.346;2023-03-03T09:26:26;96402.41;;;16.35;59.51
51123;BME280;37162;41.724;13.346;2023-03-03T09:29:08;96407.31;;;16.39;59.34
51123;BME280;37162;41.724;13.346;2023-03-03T09:31:52;96402.53;;;16.41;59.52
51123;BME280;37162;41.724;13.346;2023-03-03T09:36:43;96412.78;;;16.44;59.47
51123;BME280;37162;41.724;13.346;2023-03-03T09:39:16;96419.50;;;16.46;59.38
51123;BME280;37162;41.724;13.346;2023-03-03T10:09:58;96349.19;;;16.27;58.80
51123;BME280;37162;41.724;13.346;2023-03-03T10:12:19;96378.00;;;16.49;58.65
51123;BME280;37162;41.724;13.346;2023-03-03T10:17:48;96373.22;;;16.51;59.05
51123;BME280;37162;41.724;13.346;2023-03-03T10:26:21;96373.00;;;16.52;59.69
51123;BME280;37162;41.724;13.346;2023-03-03T10:36:48;96365.84;;;16.58;59.06
51123;BME280;37162;41.724;13.346;2023-03-03T10:42:19;96361.47;;;16.69;59.54
51123;BME280;37162;41.724;13.346;2023-03-03T10:45:10;96356.25;;;16.74;59.57
51123;BME280;37162;41.724;13.346;2023-03-03T10:56:35;96356.91;;;16.98;56.45
51123;BME280;37162;41.724;13.346;2023-03-03T11:07:11;96349.88;;;17.08;55.83
51123;BME280;37162;41.724;13.346;2023-03-03T11:10:00;96335.06;;;17.06;56.69
51123;BME280;37162;41.724;13.346;2023-03-03T11:12:37;96342.97;;;17.13;56.58
51123;BME280;37162;41.724;13.346;2023-03-03T11:36:33;96317.22;;;17.33;56.69
51123;BME280;37162;41.724;13.346;2023-03-03T11:39:07;96320.97;;;17.32;56.85
51123;BME280;37162;41.724;13.346;2023-03-03T11:44:28;96309.34;;;17.27;56.84
51123;BME280;37162;41.724;13.346;2023-03-03T11:47:17;96311.72;;;17.23;56.69
51123;BME280;37162;41.724;13.346;2023-03-03T11:49:52;96308.69;;;17.20;56.69
51123;BME280;37162;41.724;13.346;2023-03-03T11:55:15;96310.50;;;17.14;56.93
51123;BME280;37162;41.724;13.346;2023-03-03T11:58:00;96305.59;;;17.11;57.44
51123;BME280;37162;41.724;13.346;2023-03-03T12:00:40;96302.38;;;17.09;58.23
51123;BME280;37162;41.724;13.346;2023-03-03T12:03:31;96302.84;;;17.06;58.36
51123;BME280;37162;41.724;13.346;2023-03-03T12:09:05;96298.69;;;16.98;58.51
51123;BME280;37162;41.724;13.346;2023-03-03T12:18:00;96266.25;;;16.83;57.83
51123;BME280;37162;41.724;13.346;2023-03-03T12:25:39;96268.88;;;16.95;56.69
51123;BME280;37162;41.724;13.346;2023-03-03T12:28:15;96257.41;;;16.99;56.91
51123;BME280;37162;41.724;13.346;2023-03-03T12:39:59;96248.75;;;17.14;57.35
51123;BME280;37162;41.724;13.346;2023-03-03T12:42:41;96250.38;;;17.15;57.31
51123;BME280;37162;41.724;13.346;2023-03-03T12:48:16;96250.38;;;17.15;57.00
51123;BME280;37162;41.724;13.346;2023-03-03T12:50:58;96250.63;;;17.14;57.49
51123;BME280;37162;41.724;13.346;2023-03-03T12:56:13;96253.81;;;17.10;57.09
51123;BME280;37162;41.724;13.346;2023-03-03T12:59:01;96260.50;;;17.08;56.71
51123;BME280;37162;41.724;13.346;2023-03-03T13:04:31;96264.72;;;17.04;57.70
51123;BME280;37162;41.724;13.346;2023-03-03T13:07:12;96268.69;;;17.01;58.51
51123;BME280;37162;41.724;13.346;2023-03-03T13:10:12;96263.00;;;16.98;58.67
51123;BME280;37162;41.724;13.346;2023-03-03T13:12:47;96270.16;;;16.92;58.86
51123;BME280;37162;41.724;13.346;2023-03-03T13:15:27;96269.28;;;16.86;58.53
51123;BME280;37162;41.724;13.346;2023-03-03T13:20:52;96273.75;;;16.81;58.31
51123;BME280;37162;41.724;13.346;2023-03-03T13:25:58;96273.66;;;16.76;58.81
51123;BME280;37162;41.724;13.346;2023-03-03T13:31:20;96267.16;;;16.72;59.22
51123;BME280;37162;41.724;13.346;2023-03-03T13:33:53;96271.09;;;16.69;59.17
51123;BME280;37162;41.724;13.346;2023-03-03T13:36:26;96269.47;;;16.68;59.12
51123;BME280;37162;41.724;13.346;2023-03-03T13:39:00;96255.50;;;16.66;58.94
51123;BME280;37162;41.724;13.346;2023-03-03T13:44:10;96262.16;;;16.64;59.23
51123;BME280;37162;41.724;13.346;2023-03-03T13:46:39;96261.59;;;16.61;59.29
51123;BME280;37162;41.724;13.346;2023-03-03T13:52:06;96259.41;;;16.58;59.52
51123;BME280;37162;41.724;13.346;2023-03-03T13:57:24;96254.03;;;16.58;59.92
51123;BME280;37162;41.724;13.346;2023-03-03T14:06:01;96252.41;;;16.57;60.42
51123;BME280;37162;41.724;13.346;2023-03-03T14:11:37;96242.97;;;16.55;60.58
51123;BME280;37162;41.724;13.346;2023-03-03T14:16:52;96246.72;;;16.54;60.39
51123;BME280;37162;41.724;13.346;2023-03-03T14:19:31;96244.28;;;16.52;60.30
51123;BME280;37162;41.724;13.346;2023-03-03T14:25:10;96242.88;;;16.50;60.29
51123;BME280;37162;41.724;13.346;2023-03-03T14:27:40;96235.09;;;16.48;60.39
51123;BME280;37162;41.724;13.346;2023-03-03T14:35:39;96222.97;;;16.46;60.55
51123;BME280;37162;41.724;13.346;2023-03-03T14:38:18;96222.16;;;16.45;60.48
51123;BME280;37162;41.724;13.346;2023-03-03T14:40:45;96215.19;;;16.44;60.67
51123;BME280;37162;41.724;13.346;2023-03-03T14:43:26;96212.50;;;16.44;60.37
51123;BME280;37162;41.724;13.346;2023-03-03T14:48:55;96214.38;;;16.44;60.57
51123;BME280;37162;41.724;13.346;2023-03-03T14:51:41;96214.63;;;16.42;60.44
51123;BME280;37162;41.724;13.346;2023-03-03T14:54:32;96207.38;;;16.43;60.68
51123;BME280;37162;41.724;13.346;2023-03-03T14:59:31;96196.66;;;16.43;60.96
51123;BME280;37162;41.724;13.346;2023-03-03T15:04:41;96189.19;;;16.45;61.35
51123;BME280;37162;41.724;13.346;2023-03-03T15:07:30;96198.84;;;16.46;61.45
51123;BME280;37162;41.724;13.346;2023-03-03T15:09:57;96189.91;;;16.40;61.57
51123;BME280;37162;41.724;13.346;2023-03-03T15:12:25;96193.72;;;16.44;61.67
51123;BME280;37162;41.724;13.346;2023-03-03T15:17:36;96197.81;;;16.47;61.46
51123;BME280;37162;41.724;13.346;2023-03-03T15:22:57;96195.34;;;16.45;61.29
51123;BME280;37162;41.724;13.346;2023-03-03T15:25:46;96194.53;;;16.45;61.12
51123;BME280;37162;41.724;13.346;2023-03-03T15:30:54;96191.88;;;16.45;60.92
51123;BME280;37162;41.724;13.346;2023-03-03T15:33:30;96189.19;;;16.45;61.44
51123;BME280;37162;41.724;13.346;2023-03-03T15:50:01;96187.56;;;16.44;61.27
51123;BME280;37162;41.724;13.346;2023-03-03T15:55:25;96190.25;;;16.44;61.20
51123;BME280;37162;41.724;13.346;2023-03-03T16:03:17;96186.50;;;16.45;61.82
51123;BME280;37162;41.724;13.346;2023-03-03T16:06:04;96184.88;;;16.44;61.92
51123;BME280;37162;41.724;13.346;2023-03-03T16:11:20;96176.50;;;16.40;62.04
51123;BME280;37162;41.724;13.346;2023-03-03T16:19:48;96194.78;;;16.43;61.37
51123;BME280;37162;41.724;13.346;2023-03-03T16:27:48;96203.06;;;16.42;61.14
51123;BME280;37162;41.724;13.346;2023-03-03T16:33:02;96189.56;;;16.36;61.29
51123;BME280;37162;41.724;13.346;2023-03-03T16:35:37;96191.44;;;16.36;61.10
51123;BME280;37162;41.724;13.346;2023-03-03T16:40:32;96195.53;;;16.39;61.07
51123;BME280;37162;41.724;13.346;2023-03-03T16:43:21;96194.72;;;16.38;61.21
51123;BME280;37162;41.724;13.346;2023-03-03T16:45:53;96201.09;;;16.37;61.14
51123;BME280;37162;41.724;13.346;2023-03-03T16:48:45;96200.28;;;16.36;61.25
51123;BME280;37162;41.724;13.346;2023-03-03T16:54:08;96196.00;;;16.35;61.18
51123;BME280;37162;41.724;13.346;2023-03-03T16:56:42;96199.75;;;16.34;61.25
51123;BME280;37162;41.724;13.346;2023-03-03T16:59:22;96193.56;;;16.34;61.13
51123;BME280;37162;41.724;13.346;2023-03-03T17:04:35;96197.06;;;16.34;61.91
51123;BME280;37162;41.724;13.346;2023-03-03T17:07:33;96200.56;;;16.35;62.05
51123;BME280;37162;41.724;13.346;2023-03-03T17:27:22;96206.72;;;16.35;61.89
51123;BME280;37162;41.724;13.346;2023-03-03T17:40:49;96231.66;;;16.36;61.83
51123;BME280;37162;41.724;13.346;2023-03-03T17:43:24;96238.09;;;16.35;61.65
51123;BME280;37162;41.724;13.346;2023-03-03T17:45:55;96238.88;;;16.35;61.67
51123;BME280;37162;41.724;13.346;2023-03-03T17:51:22;96240.75;;;16.35;61.84
51123;BME280;37162;41.724;13.346;2023-03-03T17:56:45;96239.94;;;16.34;61.72
51123;BME280;37162;41.724;13.346;2023-03-03T17:59:40;96248.81;;;16.35;61.80
51123;BME280;37162;41.724;13.346;2023-03-03T18:05:16;96245.56;;;16.33;61.86
51123;BME280;37162;41.724;13.346;2023-03-03T18:24:58;96240.19;;;16.33;62.06